createdAt,value
2022-10-11T00:00:48.368Z,10.70
2022-10-11T00:03:16.363Z,10.70
2022-10-11T00:05:44.645Z,10.90
2022-10-11T00:08:12.513Z,10.80
2022-10-11T00:10:40.404Z,10.70
2022-10-11T00:13:08.269Z,10.80
2022-10-11T00:15:37.428Z,10.50
2022-10-11T00:18:05.646Z,10.60
2022-10-11T00:20:33.530Z,10.50
2022-10-11T00:23:01.336Z,10.40
2022-10-11T00:25:29.216Z,10.50
2022-10-11T00:27:57.020Z,10.10
2022-10-11T00:30:24.848Z,10.10
2022-10-11T00:32:54.029Z,10.20
2022-10-11T00:35:21.858Z,10.20
2022-10-11T00:37:49.680Z,10.30
2022-10-11T00:40:19.129Z,10.50
2022-10-11T00:42:47.209Z,10.30
2022-10-11T00:46:04.276Z,10.60
2022-10-11T00:48:37.670Z,10.40
2022-10-11T00:51:08.233Z,10.60
2022-10-11T00:53:36.228Z,10.70
2022-10-11T00:56:08.323Z,10.70
2022-10-11T00:58:36.736Z,10.50
2022-10-11T01:01:04.674Z,10.70
2022-10-11T01:03:33.908Z,10.80
2022-10-11T01:06:03.439Z,10.80
2022-10-11T01:08:31.584Z,10.80
2022-10-11T01:10:59.481Z,10.80
2022-10-11T01:13:34.521Z,11.00
2022-10-11T01:16:05.855Z,11.20
2022-10-11T01:18:37.909Z,11.40
2022-10-11T01:21:08.066Z,11.50
2022-10-11T01:24:12.898Z,11.70
2022-10-11T01:27:06.707Z,11.60
2022-10-11T01:29:41.455Z,11.70
2022-10-11T01:32:12.872Z,11.70
2022-10-11T01:34:42.222Z,11.70
2022-10-11T01:37:12.194Z,11.70
2022-10-11T01:39:42.140Z,11.90
2022-10-11T01:42:11.208Z,11.70
2022-10-11T01:44:39.465Z,11.80
2022-10-11T01:47:07.370Z,11.90
2022-10-11T01:49:36.576Z,12.00
2022-10-11T01:52:06.082Z,12.10
2022-10-11T01:55:08.065Z,11.90
2022-10-11T01:58:07.653Z,11.70
2022-10-11T02:00:38.339Z,11.60
2022-10-11T02:03:12.626Z,11.60
2022-10-11T02:05:45.842Z,11.70
2022-10-11T02:08:17.988Z,11.80
2022-10-11T02:10:47.296Z,11.70
2022-10-11T02:13:18.219Z,11.70
2022-10-11T02:15:46.144Z,11.80
2022-10-11T02:18:16.389Z,11.90
2022-10-11T02:20:45.617Z,12.00
2022-10-11T02:23:14.598Z,12.00
2022-10-11T02:25:42.531Z,12.00
2022-10-11T02:28:11.892Z,12.10
2022-10-11T02:30:39.891Z,12.10
2022-10-11T02:33:08.975Z,12.10
2022-10-11T02:35:39.676Z,12.20
2022-10-11T02:38:12.838Z,12.20
2022-10-11T02:40:42.672Z,12.20
2022-10-11T02:43:13.575Z,12.30
2022-10-11T02:45:43.108Z,12.30
2022-10-11T02:48:11.442Z,12.40
2022-10-11T02:50:39.907Z,12.40
2022-10-11T02:53:09.467Z,12.30
2022-10-11T02:56:23.819Z,12.30
2022-10-11T02:58:51.910Z,12.40
2022-10-11T03:01:19.926Z,12.40
2022-10-11T03:03:48.044Z,12.40
2022-10-11T03:06:15.981Z,12.20
2022-10-11T03:08:45.294Z,12.20
2022-10-11T03:11:13.293Z,12.20
2022-10-11T03:13:41.299Z,12.30
2022-10-11T03:16:09.440Z,12.30
2022-10-11T03:18:37.603Z,12.30
2022-10-11T03:21:05.451Z,13.00
2022-10-11T03:23:33.315Z,13.00
2022-10-11T03:26:02.980Z,13.00
2022-10-11T03:28:31.205Z,12.80
2022-10-11T03:30:59.102Z,12.60
2022-10-11T03:33:27.040Z,12.60
2022-10-11T03:35:54.955Z,12.70
2022-10-11T03:38:23.326Z,12.50
2022-10-11T03:40:51.684Z,12.60
2022-10-11T03:43:21.033Z,12.50
2022-10-11T03:45:48.907Z,12.40
2022-10-11T03:48:16.740Z,12.50
2022-10-11T03:50:44.603Z,12.50
2022-10-11T03:53:12.549Z,12.60
2022-10-11T03:55:40.996Z,12.50
2022-10-11T03:58:08.892Z,12.50
2022-10-11T04:00:38.287Z,12.60
2022-10-11T04:03:06.180Z,12.70
2022-10-11T04:05:34.097Z,12.70
2022-10-11T04:08:02.039Z,12.80
2022-10-11T04:10:31.057Z,12.70
2022-10-11T04:12:58.992Z,12.60
2022-10-11T04:15:26.872Z,12.70
2022-10-11T04:17:56.203Z,12.80
2022-10-11T04:20:24.148Z,12.60
2022-10-11T04:22:52.028Z,12.50
2022-10-11T04:25:19.837Z,12.50
2022-10-11T04:27:47.872Z,12.50
2022-10-11T04:30:16.157Z,12.60
2022-10-11T04:32:44.455Z,12.60
2022-10-11T04:35:13.882Z,12.60
2022-10-11T04:37:41.877Z,12.60
2022-10-11T04:40:11.176Z,12.60
2022-10-11T04:42:39.134Z,12.60
2022-10-11T04:45:08.960Z,12.60
2022-10-11T04:47:36.869Z,12.60
2022-10-11T04:50:05.229Z,12.60
2022-10-11T04:52:34.523Z,12.70
2022-10-11T04:55:02.387Z,12.70
2022-10-11T04:57:30.335Z,12.80
2022-10-11T04:59:58.471Z,12.70
2022-10-11T05:02:26.466Z,12.80
2022-10-11T05:04:54.907Z,12.80
2022-10-11T05:07:22.785Z,12.80
2022-10-11T05:09:52.128Z,12.50
2022-10-11T05:12:20.021Z,12.70
2022-10-11T05:14:47.893Z,12.60
2022-10-11T05:17:15.802Z,12.70
2022-10-11T05:19:43.761Z,12.70
2022-10-11T05:22:11.707Z,12.60
2022-10-11T05:24:39.595Z,12.60
2022-10-11T05:27:08.899Z,12.70
2022-10-11T05:29:36.972Z,12.80
2022-10-11T05:32:05.302Z,12.70
2022-10-11T05:34:33.305Z,12.80
2022-10-11T05:37:01.417Z,12.60
2022-10-11T05:39:29.450Z,12.60
2022-10-11T05:41:57.955Z,12.60
2022-10-11T05:44:27.425Z,12.60
2022-10-11T05:46:55.433Z,12.70
2022-10-11T05:49:23.428Z,12.70
2022-10-11T05:51:51.470Z,12.70
2022-10-11T05:54:19.524Z,12.60
2022-10-11T05:56:47.500Z,12.50
2022-10-11T05:59:15.454Z,12.50
2022-10-11T06:01:44.790Z,12.60
2022-10-11T06:04:13.091Z,12.50
2022-10-11T06:06:40.993Z,12.70
2022-10-11T06:09:08.923Z,12.70
2022-10-11T06:11:36.891Z,12.60
2022-10-11T06:14:04.815Z,12.60
2022-10-11T06:16:32.664Z,12.70
2022-10-11T06:19:03.774Z,12.70
2022-10-11T06:21:31.693Z,12.70
2022-10-11T06:24:01.799Z,12.80
2022-10-11T06:26:30.118Z,12.80
2022-10-11T06:28:58.331Z,12.70
2022-10-11T06:31:26.412Z,12.70
2022-10-11T06:33:54.306Z,12.70
2022-10-11T06:36:23.898Z,12.80
2022-10-11T06:38:52.854Z,12.80
2022-10-11T06:41:22.057Z,12.80
2022-10-11T06:43:50.428Z,12.90
2022-10-11T06:46:18.677Z,12.90
2022-10-11T06:48:47.242Z,12.90
2022-10-11T06:51:16.015Z,12.90
2022-10-11T06:53:45.427Z,13.00
2022-10-11T06:56:13.528Z,13.00
2022-10-11T06:58:41.770Z,13.00
2022-10-11T07:01:11.022Z,13.10
2022-10-11T07:03:39.122Z,13.10
2022-10-11T07:06:09.485Z,13.20
2022-10-11T07:08:37.839Z,13.20
2022-10-11T07:11:07.932Z,13.30
2022-10-11T07:13:36.088Z,13.30
2022-10-11T07:16:22.028Z,13.30
2022-10-11T07:18:57.203Z,13.30
2022-10-11T07:21:27.808Z,13.40
2022-10-11T07:23:56.014Z,13.50
2022-10-11T07:26:25.454Z,13.40
2022-10-11T07:28:53.845Z,13.40
2022-10-11T07:31:22.888Z,13.40
2022-10-11T07:33:50.794Z,13.40
2022-10-11T07:36:18.849Z,13.50
2022-10-11T07:38:47.379Z,13.40
2022-10-11T07:41:15.392Z,13.30
2022-10-11T07:43:47.040Z,13.40
2022-10-11T07:46:15.120Z,13.50
2022-10-11T07:48:43.247Z,13.50
2022-10-11T07:51:11.948Z,13.50
2022-10-11T07:53:40.982Z,13.70
2022-10-11T07:56:09.632Z,14.00
2022-10-11T07:58:37.654Z,14.30
2022-10-11T08:01:07.259Z,14.20
2022-10-11T08:03:35.237Z,14.20
2022-10-11T08:06:04.022Z,14.00
2022-10-11T08:08:32.215Z,14.00
2022-10-11T08:11:00.270Z,14.10
2022-10-11T08:13:28.215Z,13.90
2022-10-11T08:15:56.503Z,13.90
2022-10-11T08:18:25.813Z,14.00
2022-10-11T08:20:54.071Z,13.90
2022-10-11T08:23:21.989Z,14.00
2022-10-11T08:25:50.232Z,14.00
2022-10-11T08:28:18.771Z,14.00
2022-10-11T08:30:50.122Z,14.00
2022-10-11T08:33:18.264Z,13.90
2022-10-11T08:35:47.526Z,14.00
2022-10-11T08:38:15.640Z,14.00
2022-10-11T08:40:47.263Z,13.90
2022-10-11T08:43:18.889Z,14.20
2022-10-11T08:45:48.351Z,14.20
2022-10-11T08:48:18.493Z,14.40
2022-10-11T08:50:48.879Z,14.20
2022-10-11T08:53:20.669Z,14.10
2022-10-11T08:55:51.005Z,14.00
2022-10-11T08:58:21.460Z,14.00
2022-10-11T09:00:51.823Z,13.90
2022-10-11T09:03:27.823Z,14.00
2022-10-11T09:06:07.703Z,13.90
2022-10-11T09:08:42.319Z,13.80
2022-10-11T09:11:12.321Z,13.80
2022-10-11T09:13:52.415Z,13.90
2022-10-11T09:16:25.058Z,13.90
2022-10-11T09:19:01.849Z,14.00
2022-10-11T09:21:33.874Z,13.90
2022-10-11T09:24:13.501Z,14.00
2022-10-11T09:26:43.992Z,14.10
2022-10-11T09:29:14.444Z,14.40
2022-10-11T09:31:42.386Z,14.30
2022-10-11T09:34:12.230Z,14.30
2022-10-11T09:36:44.619Z,14.50
2022-10-11T09:39:28.164Z,14.30
2022-10-11T09:41:58.307Z,14.30
2022-10-11T09:44:26.805Z,14.30
2022-10-11T09:46:55.666Z,14.40
2022-10-11T09:49:26.523Z,14.40
2022-10-11T09:52:00.957Z,14.40
2022-10-11T09:54:39.710Z,14.40
2022-10-11T09:57:07.886Z,14.50
2022-10-11T09:59:36.145Z,14.50
2022-10-11T10:02:17.707Z,14.50
2022-10-11T10:04:56.379Z,14.50
2022-10-11T10:07:25.907Z,14.60
2022-10-11T10:09:53.979Z,14.60
2022-10-11T10:12:22.972Z,14.70
2022-10-11T10:15:08.112Z,14.70
2022-10-11T10:17:36.656Z,14.70
2022-10-11T10:20:05.707Z,14.70
2022-10-11T10:22:36.144Z,14.90
2022-10-11T10:25:08.054Z,15.10
2022-10-11T10:27:36.295Z,15.10
2022-10-11T10:30:16.004Z,15.30
2022-10-11T10:32:48.765Z,15.30
2022-10-11T10:35:32.717Z,15.20
2022-10-11T10:38:14.120Z,15.20
2022-10-11T10:40:44.005Z,15.20
2022-10-11T10:43:16.848Z,15.20
2022-10-11T10:46:03.449Z,15.10
2022-10-11T10:49:11.690Z,15.20
2022-10-11T10:51:27.504Z,15.40
2022-10-11T10:53:59.954Z,15.40
2022-10-11T10:56:30.769Z,15.50
2022-10-11T10:59:04.477Z,15.50
2022-10-11T11:01:33.951Z,15.50
2022-10-11T11:04:08.088Z,15.50
2022-10-11T11:06:39.180Z,15.50
2022-10-11T11:09:19.072Z,15.70
2022-10-11T11:11:53.149Z,16.20
2022-10-11T11:14:29.141Z,16.60
2022-10-11T11:16:59.906Z,16.40
2022-10-11T11:19:36.099Z,16.40
2022-10-11T11:22:07.583Z,16.40
2022-10-11T11:24:41.421Z,16.50
2022-10-11T11:27:14.401Z,16.60
2022-10-11T11:29:44.995Z,17.10
2022-10-11T11:32:18.652Z,17.40
2022-10-11T11:34:47.765Z,17.40
2022-10-11T11:37:22.115Z,17.60
2022-10-11T11:39:52.713Z,17.90
2022-10-11T11:42:22.395Z,17.80
2022-10-11T11:44:50.997Z,18.10
2022-10-11T11:47:21.527Z,18.40
2022-10-11T11:49:50.571Z,18.10
2022-10-11T11:52:24.417Z,18.30
2022-10-11T11:55:00.067Z,18.40
2022-10-11T11:57:38.705Z,18.70
2022-10-11T12:00:07.799Z,18.60
2022-10-11T12:02:45.531Z,18.70
2022-10-11T12:05:14.982Z,18.90
2022-10-11T12:07:55.134Z,19.10
2022-10-11T12:10:32.839Z,19.10
2022-10-11T12:13:07.732Z,18.90
2022-10-11T12:15:36.055Z,18.90
2022-10-11T12:18:06.781Z,19.20
2022-10-11T12:20:38.005Z,19.20
2022-10-11T12:23:07.973Z,19.20
2022-10-11T12:25:44.536Z,19.20
2022-10-11T12:28:48.882Z,19.40
2022-10-11T12:31:25.240Z,18.90
2022-10-11T12:34:09.694Z,19.10
2022-10-11T12:36:39.306Z,19.00
2022-10-11T12:39:50.338Z,19.00
2022-10-11T12:42:27.610Z,18.80
2022-10-11T12:45:32.753Z,19.20
2022-10-11T12:48:07.408Z,19.40
2022-10-11T12:50:41.288Z,19.10
2022-10-11T12:53:13.300Z,18.90
2022-10-11T12:55:46.470Z,19.00
2022-10-11T12:58:29.283Z,19.10
2022-10-11T13:01:21.775Z,18.90
2022-10-11T13:03:53.187Z,18.70
2022-10-11T13:06:24.999Z,18.90
2022-10-11T13:08:56.553Z,19.00
2022-10-11T13:11:29.165Z,18.80
2022-10-11T13:14:10.785Z,18.90
2022-10-11T13:20:03.843Z,18.70
2022-10-11T13:22:35.115Z,18.80
2022-10-11T13:25:15.603Z,19.00
2022-10-11T13:27:43.999Z,18.90
2022-10-11T13:30:22.517Z,19.30
2022-10-11T13:32:50.483Z,19.30
2022-10-11T13:35:23.959Z,19.40
2022-10-11T13:37:53.071Z,19.40
2022-10-11T13:40:27.184Z,19.60
2022-10-11T13:42:55.705Z,19.50
2022-10-11T13:45:27.986Z,19.40
2022-10-11T13:47:56.850Z,19.10
2022-10-11T13:50:31.674Z,19.20
2022-10-11T13:53:01.095Z,19.10
2022-10-11T13:55:30.775Z,18.80
2022-10-11T13:57:59.843Z,18.40
2022-10-11T14:00:32.289Z,18.30
2022-10-11T14:03:03.807Z,18.20
2022-10-11T14:05:34.635Z,18.30
2022-10-11T14:08:03.833Z,18.30
2022-10-11T14:10:31.796Z,18.30
2022-10-11T14:13:07.555Z,18.50
2022-10-11T14:15:37.439Z,18.20
2022-10-11T14:18:31.471Z,18.10
2022-10-11T14:20:59.689Z,18.10
2022-10-11T14:23:27.791Z,18.10
2022-10-11T14:25:56.221Z,18.10
2022-10-11T14:28:24.402Z,18.10
2022-10-11T14:30:53.900Z,17.80
2022-10-11T14:33:22.012Z,17.80
2022-10-11T14:35:49.987Z,17.70
2022-10-11T14:38:17.874Z,17.70
2022-10-11T14:40:45.834Z,17.50
2022-10-11T14:43:13.711Z,17.50
2022-10-11T14:45:41.633Z,17.40
2022-10-11T14:48:10.921Z,17.20
2022-10-11T14:50:41.515Z,17.10
2022-10-11T14:53:09.803Z,17.00
2022-10-11T14:55:37.838Z,17.00
2022-10-11T14:58:06.861Z,17.20
2022-10-11T15:00:35.093Z,17.20
2022-10-11T15:03:03.354Z,17.10
2022-10-11T15:05:34.341Z,17.00
2022-10-11T15:08:02.595Z,16.80
2022-10-11T15:10:31.289Z,16.80
2022-10-11T15:12:59.268Z,16.80
2022-10-11T15:15:27.632Z,16.80
2022-10-11T15:17:57.271Z,16.90
2022-10-11T15:20:26.833Z,16.90
2022-10-11T15:22:56.361Z,16.80
2022-10-11T15:25:24.602Z,16.90
2022-10-11T15:27:52.588Z,17.00
2022-10-11T15:30:21.798Z,16.80
2022-10-11T15:32:50.041Z,16.70
2022-10-11T15:35:18.467Z,16.70
2022-10-11T15:37:46.357Z,16.60
2022-10-11T15:40:20.184Z,16.60
2022-10-11T15:42:48.412Z,16.60
2022-10-11T15:45:17.117Z,16.60
2022-10-11T15:47:45.370Z,16.50
2022-10-11T15:50:18.893Z,16.50
2022-10-11T15:52:46.942Z,16.50
2022-10-11T15:55:14.816Z,16.50
2022-10-11T15:57:44.124Z,16.40
2022-10-11T16:00:12.776Z,16.30
2022-10-11T16:02:40.963Z,16.30
2022-10-11T16:05:09.039Z,16.10
2022-10-11T16:07:36.954Z,16.00
2022-10-11T16:10:08.043Z,16.10
2022-10-11T16:12:35.924Z,16.10
2022-10-11T16:15:05.861Z,16.10
2022-10-11T16:17:33.846Z,16.00
2022-10-11T16:20:01.957Z,16.20
2022-10-11T16:22:30.751Z,16.10
2022-10-11T16:24:58.672Z,16.10
2022-10-11T16:27:26.606Z,16.10
2022-10-11T16:29:54.863Z,16.00
2022-10-11T16:32:24.386Z,15.80
2022-10-11T16:34:52.345Z,15.80
2022-10-11T16:37:20.325Z,15.80
2022-10-11T16:39:48.292Z,15.90
2022-10-11T16:42:16.177Z,15.80
2022-10-11T16:44:44.378Z,15.80
2022-10-11T16:47:12.302Z,15.90
2022-10-11T16:49:41.578Z,15.80
2022-10-11T16:52:10.829Z,15.80
2022-10-11T16:54:39.433Z,15.80
2022-10-11T16:57:07.301Z,15.80
2022-10-11T16:59:35.232Z,15.70
2022-10-11T17:02:04.983Z,15.60
2022-10-11T17:04:32.889Z,15.40
2022-10-11T17:07:02.173Z,15.30
2022-10-11T17:09:30.062Z,15.30
2022-10-11T17:11:58.008Z,15.30
2022-10-11T17:14:26.076Z,15.20
2022-10-11T17:16:53.916Z,15.20
2022-10-11T17:19:21.806Z,15.10
2022-10-11T17:21:49.718Z,14.90
2022-10-11T17:24:19.217Z,14.90
2022-10-11T17:26:47.529Z,14.80
2022-10-11T17:29:15.794Z,14.70
2022-10-11T17:31:48.801Z,14.70
2022-10-11T17:34:17.906Z,14.90
2022-10-11T17:36:45.793Z,14.80
2022-10-11T17:39:14.833Z,14.80
2022-10-11T17:41:44.343Z,14.80
2022-10-11T17:44:12.240Z,14.80
2022-10-11T17:46:40.486Z,14.70
2022-10-11T17:49:08.838Z,14.60
2022-10-11T17:51:36.944Z,14.60
2022-10-11T17:54:06.107Z,14.70
2022-10-11T17:56:38.016Z,14.80
2022-10-11T17:59:07.715Z,14.70
2022-10-11T18:01:35.665Z,14.70
2022-10-11T18:04:05.069Z,14.60
2022-10-11T18:06:33.901Z,14.50
2022-10-11T18:09:02.997Z,14.50
2022-10-11T18:11:31.265Z,14.30
2022-10-11T18:13:59.147Z,14.50
2022-10-11T18:16:29.590Z,14.40
2022-10-11T18:18:57.910Z,14.50
2022-10-11T18:21:28.777Z,14.60
2022-10-11T18:24:01.725Z,14.80
2022-10-11T18:26:30.906Z,14.70
2022-10-11T18:28:59.173Z,14.70
2022-10-11T18:31:29.945Z,14.70
2022-10-11T18:33:57.868Z,14.60
2022-10-11T18:36:26.933Z,14.60
2022-10-11T18:38:55.625Z,14.70
2022-10-11T18:41:24.216Z,14.70
2022-10-11T18:43:52.767Z,14.70
2022-10-11T18:46:21.366Z,14.50
2022-10-11T18:48:51.441Z,14.50
2022-10-11T18:51:20.635Z,14.50
2022-10-11T18:53:48.467Z,14.30
2022-10-11T18:56:16.997Z,14.40
2022-10-11T18:58:45.195Z,14.50
2022-10-11T19:01:15.952Z,14.50
2022-10-11T19:03:44.191Z,14.50
2022-10-11T19:06:17.148Z,14.60
2022-10-11T19:08:45.077Z,14.50
2022-10-11T19:11:13.905Z,14.60
2022-10-11T19:13:41.757Z,14.50
2022-10-11T19:16:10.745Z,14.40
2022-10-11T19:18:43.284Z,14.30
2022-10-11T19:21:14.517Z,14.30
2022-10-11T19:23:43.076Z,14.30
2022-10-11T19:26:13.946Z,14.30
2022-10-11T19:28:41.906Z,14.20
2022-10-11T19:31:10.585Z,14.30
2022-10-11T19:33:38.416Z,14.30
2022-10-11T19:36:07.432Z,14.30
2022-10-11T19:38:36.835Z,14.30
2022-10-11T19:41:04.963Z,14.30
2022-10-11T19:43:32.990Z,14.00
2022-10-11T19:46:01.665Z,14.00
2022-10-11T19:48:29.531Z,14.00
2022-10-11T19:51:03.506Z,14.10
2022-10-11T19:53:31.367Z,14.10
2022-10-11T19:56:02.423Z,14.10
2022-10-11T19:58:30.455Z,14.10
2022-10-11T20:01:03.103Z,14.10
2022-10-11T20:03:31.018Z,13.90
2022-10-11T20:06:00.646Z,13.90
2022-10-11T20:08:31.127Z,13.70
2022-10-11T20:10:59.225Z,13.80
2022-10-11T20:13:32.488Z,13.80
2022-10-11T20:16:03.386Z,13.60
2022-10-11T20:18:31.273Z,13.50
2022-10-11T20:21:00.362Z,13.40
2022-10-11T20:23:28.305Z,13.30
2022-10-11T20:26:00.308Z,13.20
2022-10-11T20:28:30.799Z,13.20
2022-10-11T20:30:58.973Z,13.20
2022-10-11T20:33:27.025Z,13.30
2022-10-11T20:35:58.896Z,13.30
2022-10-11T20:38:26.864Z,13.30
2022-10-11T20:40:54.733Z,13.30
2022-10-11T20:43:22.633Z,13.30
2022-10-11T20:46:00.965Z,13.20
2022-10-11T20:48:28.995Z,13.10
2022-10-11T20:50:56.847Z,13.20
2022-10-11T20:53:25.086Z,13.10
2022-10-11T20:55:53.060Z,13.30
2022-10-11T20:58:21.088Z,13.50
2022-10-11T21:00:49.354Z,13.40
2022-10-11T21:03:18.658Z,13.40
2022-10-11T21:05:46.542Z,13.30
2022-10-11T21:08:14.376Z,13.10
2022-10-11T21:10:42.215Z,13.00
2022-10-11T21:13:10.016Z,13.10
2022-10-11T21:15:37.856Z,13.10
2022-10-11T21:18:06.027Z,13.30
2022-10-11T21:20:38.291Z,13.60
2022-10-11T21:23:06.173Z,13.50
2022-10-11T21:25:34.231Z,13.30
2022-10-11T21:28:02.225Z,13.10
2022-10-11T21:30:30.126Z,13.20
2022-10-11T21:32:58.125Z,13.00
2022-10-11T21:35:26.146Z,13.10
2022-10-11T21:37:55.347Z,13.10
2022-10-11T21:40:23.412Z,13.10
2022-10-11T21:42:51.425Z,12.90
2022-10-11T21:45:19.364Z,12.80
2022-10-11T21:47:47.268Z,12.90
2022-10-11T21:50:15.160Z,12.80
2022-10-11T21:52:43.082Z,12.80
2022-10-11T21:55:12.796Z,12.80
2022-10-11T21:57:42.804Z,12.80
2022-10-11T22:00:12.182Z,12.60
2022-10-11T22:02:40.137Z,12.40
2022-10-11T22:05:08.332Z,12.50
2022-10-11T22:07:36.245Z,12.60
2022-10-11T22:10:04.311Z,12.60
2022-10-11T22:12:33.772Z,12.40
2022-10-11T22:15:01.863Z,12.40
2022-10-11T22:17:29.811Z,12.50
2022-10-11T22:19:57.676Z,12.50
2022-10-11T22:22:25.812Z,12.50
2022-10-11T22:24:53.700Z,12.50
2022-10-11T22:27:21.518Z,12.50
2022-10-11T22:29:50.743Z,12.50
2022-10-11T22:32:18.593Z,12.70
2022-10-11T22:34:46.475Z,12.70
2022-10-11T22:37:14.386Z,12.90
2022-10-11T22:39:42.286Z,12.60
2022-10-11T22:42:10.259Z,12.50
2022-10-11T22:44:38.183Z,12.50
2022-10-11T22:47:07.456Z,12.40
2022-10-11T22:49:35.359Z,12.40
2022-10-11T22:52:03.265Z,12.60
2022-10-11T22:54:31.153Z,12.60
2022-10-11T22:56:59.040Z,12.60
2022-10-11T22:59:26.967Z,12.60
2022-10-11T23:01:54.905Z,12.70
2022-10-11T23:04:24.138Z,12.70
2022-10-11T23:06:52.085Z,12.60
2022-10-11T23:09:19.991Z,12.60
2022-10-11T23:11:47.935Z,12.60
2022-10-11T23:14:16.016Z,12.80
2022-10-11T23:16:43.986Z,12.90
2022-10-11T23:19:11.870Z,12.80
2022-10-11T23:21:41.147Z,12.90
2022-10-11T23:24:09.456Z,12.80
2022-10-11T23:26:37.358Z,12.70
2022-10-11T23:29:05.426Z,12.70
2022-10-11T23:31:33.275Z,12.80
2022-10-11T23:34:01.187Z,12.80
2022-10-11T23:36:29.114Z,12.80
2022-10-11T23:38:59.041Z,12.70
2022-10-11T23:41:27.753Z,12.80
2022-10-11T23:43:55.619Z,12.80
2022-10-11T23:46:23.478Z,12.70
2022-10-11T23:48:51.327Z,12.90
2022-10-11T23:51:19.146Z,12.80
2022-10-11T23:53:46.989Z,12.80
2022-10-11T23:56:16.190Z,12.90
2022-10-11T23:58:44.044Z,12.90
